Terminal Aerodrome Forecast
Issued by NWS

Home | Current Version | Previous Version | Text Only | Print | Product List | Glossary On
Versions: 1 2 3 4 5 6 7 8 9 10 11 12 13 14
737
FTUS45 KABQ 260520
TAFTCC
TAF
KTCC 260520Z 2606/2706 20010KT P6SM SKC
     FM260800 23013KT P6SM SKC
     FM261100 26015G25KT P6SM SKC
     FM261700 28022G31KT P6SM SKC
     FM262200 32015G24KT P6SM SCT080
     FM270000 02015KT P6SM BKN070
     FM270200 02005KT P6SM SKC=

USA.gov is the U.S. government's official web portal to all federal, state and local government web resources and services.